sensor_id;sensor_type;location;lat;lon;timestamp;P1;durP1;ratioP1;P2;durP2;ratioP2
76540;SDS011;65385;55.772;37.658;2024-03-08T00:00:36;7.45;;;3.83;;
76540;SDS011;65385;55.772;37.658;2024-03-08T00:01:38;8.00;;;3.75;;
76540;SDS011;65385;55.772;37.658;2024-03-08T00:02:39;6.68;;;3.75;;
76540;SDS011;65385;55.772;37.658;2024-03-08T00:03:40;8.20;;;4.22;;
76540;SDS011;65385;55.772;37.658;2024-03-08T00:04:41;8.18;;;3.83;;
76540;SDS011;65385;55.772;37.658;2024-03-08T00:05:42;6.13;;;3.60;;
76540;SDS011;65385;55.772;37.658;2024-03-08T00:06:43;6.20;;;3.22;;
76540;SDS011;65385;55.772;37.658;2024-03-08T00:07:46;9.65;;;4.20;;
76540;SDS011;65385;55.772;37.658;2024-03-08T00:08:46;8.23;;;4.60;;
76540;SDS011;65385;55.772;37.658;2024-03-08T00:09:47;8.88;;;4.47;;
76540;SDS011;65385;55.772;37.658;2024-03-08T00:10:48;6.70;;;3.67;;
76540;SDS011;65385;55.772;37.658;2024-03-08T00:11:48;9.15;;;4.45;;
76540;SDS011;65385;55.772;37.658;2024-03-08T00:12:50;7.95;;;3.67;;
76540;SDS011;65385;55.772;37.658;2024-03-08T00:13:52;8.40;;;4.60;;
76540;SDS011;65385;55.772;37.658;2024-03-08T00:14:53;5.30;;;2.72;;
76540;SDS011;65385;55.772;37.658;2024-03-08T00:15:55;8.45;;;4.28;;
76540;SDS011;65385;55.772;37.658;2024-03-08T00:16:57;7.70;;;4.47;;
76540;SDS011;65385;55.772;37.658;2024-03-08T00:17:58;12.25;;;4.72;;
76540;SDS011;65385;55.772;37.658;2024-03-08T00:18:59;5.72;;;3.35;;
76540;SDS011;65385;55.772;37.658;2024-03-08T00:20:00;7.85;;;3.22;;
76540;SDS011;65385;55.772;37.658;2024-03-08T00:21:00;4.72;;;3.25;;
76540;SDS011;65385;55.772;37.658;2024-03-08T00:22:01;11.32;;;4.28;;
76540;SDS011;65385;55.772;37.658;2024-03-08T00:23:01;8.88;;;4.32;;
76540;SDS011;65385;55.772;37.658;2024-03-08T00:24:02;9.35;;;3.85;;
76540;SDS011;65385;55.772;37.658;2024-03-08T00:25:04;8.18;;;4.22;;
76540;SDS011;65385;55.772;37.658;2024-03-08T00:26:05;8.18;;;4.47;;
76540;SDS011;65385;55.772;37.658;2024-03-08T00:27:06;8.40;;;4.53;;
76540;SDS011;65385;55.772;37.658;2024-03-08T00:28:07;10.32;;;5.00;;
76540;SDS011;65385;55.772;37.658;2024-03-08T00:29:08;9.25;;;4.38;;
76540;SDS011;65385;55.772;37.658;2024-03-08T00:30:08;8.45;;;4.40;;
76540;SDS011;65385;55.772;37.658;2024-03-08T00:31:11;9.05;;;4.45;;
76540;SDS011;65385;55.772;37.658;2024-03-08T00:32:11;8.50;;;4.30;;
76540;SDS011;65385;55.772;37.658;2024-03-08T00:33:13;7.60;;;4.15;;
76540;SDS011;65385;55.772;37.658;2024-03-08T00:34:14;9.20;;;4.03;;
76540;SDS011;65385;55.772;37.658;2024-03-08T00:35:14;3.33;;;2.38;;
76540;SDS011;65385;55.772;37.658;2024-03-08T00:36:15;8.63;;;3.88;;
76540;SDS011;65385;55.772;37.658;2024-03-08T00:37:16;8.07;;;4.28;;
76540;SDS011;65385;55.772;37.658;2024-03-08T00:38:17;5.97;;;3.47;;
76540;SDS011;65385;55.772;37.658;2024-03-08T00:39:19;7.15;;;3.65;;
76540;SDS011;65385;55.772;37.658;2024-03-08T00:40:23;7.05;;;4.50;;
76540;SDS011;65385;55.772;37.658;2024-03-08T00:41:23;7.90;;;4.88;;
76540;SDS011;65385;55.772;37.658;2024-03-08T00:42:26;12.35;;;4.45;;
76540;SDS011;65385;55.772;37.658;2024-03-08T00:43:27;8.93;;;4.20;;
76540;SDS011;65385;55.772;37.658;2024-03-08T00:44:28;8.98;;;4.43;;
76540;SDS011;65385;55.772;37.658;2024-03-08T00:45:28;5.93;;;3.72;;
76540;SDS011;65385;55.772;37.658;2024-03-08T00:46:29;5.60;;;3.70;;
76540;SDS011;65385;55.772;37.658;2024-03-08T00:47:30;11.05;;;4.53;;
76540;SDS011;65385;55.772;37.658;2024-03-08T00:48:30;7.15;;;3.60;;
76540;SDS011;65385;55.772;37.658;2024-03-08T00:49:31;6.82;;;3.80;;
76540;SDS011;65385;55.772;37.658;2024-03-08T00:50:32;6.53;;;3.67;;
76540;SDS011;65385;55.772;37.658;2024-03-08T00:51:34;4.75;;;3.53;;
76540;SDS011;65385;55.772;37.658;2024-03-08T00:52:35;4.65;;;2.97;;
76540;SDS011;65385;55.772;37.658;2024-03-08T00:53:36;5.85;;;3.05;;
76540;SDS011;65385;55.772;37.658;2024-03-08T00:54:37;7.95;;;3.40;;
76540;SDS011;65385;55.772;37.658;2024-03-08T00:55:38;6.40;;;3.70;;
76540;SDS011;65385;55.772;37.658;2024-03-08T00:56:39;17.25;;;4.13;;
76540;SDS011;65385;55.772;37.658;2024-03-08T00:57:39;4.15;;;3.55;;
76540;SDS011;65385;55.772;37.658;2024-03-08T00:58:41;7.50;;;3.92;;
76540;SDS011;65385;55.772;37.658;2024-03-08T00:59:41;5.50;;;3.15;;
76540;SDS011;65385;55.772;37.658;2024-03-08T01:00:42;5.50;;;3.10;;
76540;SDS011;65385;55.772;37.658;2024-03-08T01:01:44;2.67;;;1.75;;
76540;SDS011;65385;55.772;37.658;2024-03-08T01:02:45;6.47;;;3.28;;
76540;SDS011;65385;55.772;37.658;2024-03-08T01:03:46;6.95;;;3.47;;
76540;SDS011;65385;55.772;37.658;2024-03-08T01:04:47;7.43;;;4.22;;
76540;SDS011;65385;55.772;37.658;2024-03-08T01:05:48;4.70;;;2.78;;
76540;SDS011;65385;55.772;37.658;2024-03-08T01:06:49;6.60;;;3.65;;
76540;SDS011;65385;55.772;37.658;2024-03-08T01:07:49;5.03;;;3.67;;
76540;SDS011;65385;55.772;37.658;2024-03-08T01:08:50;6.05;;;3.40;;
76540;SDS011;65385;55.772;37.658;2024-03-08T01:09:53;4.07;;;2.92;;
76540;SDS011;65385;55.772;37.658;2024-03-08T01:10:53;4.50;;;2.75;;
76540;SDS011;65385;55.772;37.658;2024-03-08T01:11:54;5.72;;;4.25;;
76540;SDS011;65385;55.772;37.658;2024-03-08T01:12:55;8.40;;;3.90;;
76540;SDS011;65385;55.772;37.658;2024-03-08T01:13:57;9.07;;;5.07;;
76540;SDS011;65385;55.772;37.658;2024-03-08T01:14:57;6.78;;;3.22;;
76540;SDS011;65385;55.772;37.658;2024-03-08T01:15:58;5.70;;;3.35;;
76540;SDS011;65385;55.772;37.658;2024-03-08T01:16:59;5.65;;;3.72;;
76540;SDS011;65385;55.772;37.658;2024-03-08T01:17:59;7.10;;;3.75;;
76540;SDS011;65385;55.772;37.658;2024-03-08T01:19:01;3.47;;;2.72;;
76540;SDS011;65385;55.772;37.658;2024-03-08T01:20:04;8.35;;;3.83;;
76540;SDS011;65385;55.772;37.658;2024-03-08T01:21:05;6.30;;;3.17;;
76540;SDS011;65385;55.772;37.658;2024-03-08T01:22:06;4.85;;;3.70;;
76540;SDS011;65385;55.772;37.658;2024-03-08T01:23:08;9.00;;;3.70;;
76540;SDS011;65385;55.772;37.658;2024-03-08T01:24:08;7.18;;;3.58;;
76540;SDS011;65385;55.772;37.658;2024-03-08T01:25:09;4.40;;;3.00;;
76540;SDS011;65385;55.772;37.658;2024-03-08T01:26:10;6.63;;;3.53;;
76540;SDS011;65385;55.772;37.658;2024-03-08T01:27:11;4.97;;;3.22;;
76540;SDS011;65385;55.772;37.658;2024-03-08T01:28:12;5.05;;;3.40;;
76540;SDS011;65385;55.772;37.658;2024-03-08T01:29:13;4.82;;;2.67;;
76540;SDS011;65385;55.772;37.658;2024-03-08T01:30:14;4.82;;;3.22;;
76540;SDS011;65385;55.772;37.658;2024-03-08T01:31:17;7.45;;;3.97;;
76540;SDS011;65385;55.772;37.658;2024-03-08T01:32:18;8.95;;;3.88;;
76540;SDS011;65385;55.772;37.658;2024-03-08T01:33:19;6.47;;;3.17;;
76540;SDS011;65385;55.772;37.658;2024-03-08T01:34:22;3.22;;;2.92;;
76540;SDS011;65385;55.772;37.658;2024-03-08T01:35:23;6.45;;;3.65;;
76540;SDS011;65385;55.772;37.658;2024-03-08T01:36:24;5.90;;;3.65;;
76540;SDS011;65385;55.772;37.658;2024-03-08T01:37:25;6.57;;;3.72;;
76540;SDS011;65385;55.772;37.658;2024-03-08T01:38:26;6.10;;;3.42;;
76540;SDS011;65385;55.772;37.658;2024-03-08T01:39:26;6.00;;;3.55;;
76540;SDS011;65385;55.772;37.658;2024-03-08T01:40:27;4.35;;;3.22;;
76540;SDS011;65385;55.772;37.658;2024-03-08T01:41:27;5.00;;;3.35;;
76540;SDS011;65385;55.772;37.658;2024-03-08T01:42:29;4.82;;;3.20;;
76540;SDS011;65385;55.772;37.658;2024-03-08T01:43:30;8.20;;;3.95;;
76540;SDS011;65385;55.772;37.658;2024-03-08T01:44:31;3.83;;;3.53;;
76540;SDS011;65385;55.772;37.658;2024-03-08T01:45:32;6.20;;;3.50;;
76540;SDS011;65385;55.772;37.658;2024-03-08T01:46:34;3.75;;;2.28;;
76540;SDS011;65385;55.772;37.658;2024-03-08T01:47:35;2.85;;;2.63;;
76540;SDS011;65385;55.772;37.658;2024-03-08T01:48:37;7.45;;;3.30;;
76540;SDS011;65385;55.772;37.658;2024-03-08T01:49:38;6.80;;;4.05;;
76540;SDS011;65385;55.772;37.658;2024-03-08T01:50:39;6.13;;;3.47;;
76540;SDS011;65385;55.772;37.658;2024-03-08T01:51:40;7.28;;;3.88;;
76540;SDS011;65385;55.772;37.658;2024-03-08T01:52:41;6.22;;;3.80;;
76540;SDS011;65385;55.772;37.658;2024-03-08T01:53:43;5.63;;;3.50;;
76540;SDS011;65385;55.772;37.658;2024-03-08T01:54:47;7.00;;;3.00;;
76540;SDS011;65385;55.772;37.658;2024-03-08T01:55:48;5.80;;;3.60;;
76540;SDS011;65385;55.772;37.658;2024-03-08T01:56:49;6.03;;;3.58;;
76540;SDS011;65385;55.772;37.658;2024-03-08T01:57:50;6.75;;;4.03;;
76540;SDS011;65385;55.772;37.658;2024-03-08T01:58:51;5.10;;;3.28;;
76540;SDS011;65385;55.772;37.658;2024-03-08T01:59:53;5.13;;;3.72;;
76540;SDS011;65385;55.772;37.658;2024-03-08T02:00:56;5.88;;;3.63;;
76540;SDS011;65385;55.772;37.658;2024-03-08T02:02:00;4.20;;;2.97;;
76540;SDS011;65385;55.772;37.658;2024-03-08T02:03:03;9.43;;;3.67;;
76540;SDS011;65385;55.772;37.658;2024-03-08T02:04:04;6.45;;;3.70;;
76540;SDS011;65385;55.772;37.658;2024-03-08T02:05:07;9.38;;;4.03;;
76540;SDS011;65385;55.772;37.658;2024-03-08T02:06:08;6.50;;;3.17;;
76540;SDS011;65385;55.772;37.658;2024-03-08T02:07:10;7.72;;;3.58;;
76540;SDS011;65385;55.772;37.658;2024-03-08T02:08:11;8.77;;;3.90;;
76540;SDS011;65385;55.772;37.658;2024-03-08T02:09:14;6.07;;;4.20;;
76540;SDS011;65385;55.772;37.658;2024-03-08T02:10:15;5.68;;;3.45;;
76540;SDS011;65385;55.772;37.658;2024-03-08T02:11:16;6.28;;;4.28;;
76540;SDS011;65385;55.772;37.658;2024-03-08T02:12:17;7.72;;;3.60;;
76540;SDS011;65385;55.772;37.658;2024-03-08T02:13:17;4.78;;;3.70;;
76540;SDS011;65385;55.772;37.658;2024-03-08T02:14:19;7.75;;;3.70;;
76540;SDS011;65385;55.772;37.658;2024-03-08T02:15:20;8.60;;;4.63;;
76540;SDS011;65385;55.772;37.658;2024-03-08T02:16:22;6.75;;;3.50;;
76540;SDS011;65385;55.772;37.658;2024-03-08T02:17:22;7.18;;;3.28;;
76540;SDS011;65385;55.772;37.658;2024-03-08T02:18:23;6.78;;;4.35;;
76540;SDS011;65385;55.772;37.658;2024-03-08T02:19:24;6.22;;;3.55;;
76540;SDS011;65385;55.772;37.658;2024-03-08T02:20:28;9.40;;;3.50;;
76540;SDS011;65385;55.772;37.658;2024-03-08T02:21:29;7.68;;;3.30;;
76540;SDS011;65385;55.772;37.658;2024-03-08T02:22:30;10.60;;;4.80;;
76540;SDS011;65385;55.772;37.658;2024-03-08T02:23:34;7.63;;;3.90;;
76540;SDS011;65385;55.772;37.658;2024-03-08T02:24:35;7.72;;;4.85;;
76540;SDS011;65385;55.772;37.658;2024-03-08T02:25:36;6.80;;;3.45;;
76540;SDS011;65385;55.772;37.658;2024-03-08T02:26:37;8.07;;;3.72;;
76540;SDS011;65385;55.772;37.658;2024-03-08T02:27:37;6.93;;;4.63;;
76540;SDS011;65385;55.772;37.658;2024-03-08T02:28:38;8.35;;;4.82;;
76540;SDS011;65385;55.772;37.658;2024-03-08T02:29:40;9.00;;;3.75;;
76540;SDS011;65385;55.772;37.658;2024-03-08T02:30:42;8.00;;;4.70;;
76540;SDS011;65385;55.772;37.658;2024-03-08T02:31:43;9.52;;;3.53;;
76540;SDS011;65385;55.772;37.658;2024-03-08T02:32:43;6.43;;;3.45;;
76540;SDS011;65385;55.772;37.658;2024-03-08T02:33:44;11.32;;;4.13;;
76540;SDS011;65385;55.772;37.658;2024-03-08T02:34:47;8.00;;;3.97;;
76540;SDS011;65385;55.772;37.658;2024-03-08T02:35:48;8.00;;;4.15;;
76540;SDS011;65385;55.772;37.658;2024-03-08T02:36:51;6.97;;;4.05;;
76540;SDS011;65385;55.772;37.658;2024-03-08T02:37:52;8.75;;;4.20;;
76540;SDS011;65385;55.772;37.658;2024-03-08T02:38:53;8.90;;;3.83;;
76540;SDS011;65385;55.772;37.658;2024-03-08T02:39:55;5.68;;;3.65;;
76540;SDS011;65385;55.772;37.658;2024-03-08T02:40:56;7.63;;;3.88;;
76540;SDS011;65385;55.772;37.658;2024-03-08T02:41:56;11.73;;;4.22;;
76540;SDS011;65385;55.772;37.658;2024-03-08T02:42:57;7.45;;;4.07;;
76540;SDS011;65385;55.772;37.658;2024-03-08T02:43:58;7.30;;;4.18;;
76540;SDS011;65385;55.772;37.658;2024-03-08T02:45:00;8.20;;;4.65;;
76540;SDS011;65385;55.772;37.658;2024-03-08T02:46:00;7.38;;;3.80;;
76540;SDS011;65385;55.772;37.658;2024-03-08T02:47:01;7.25;;;3.97;;
76540;SDS011;65385;55.772;37.658;2024-03-08T02:48:02;7.78;;;3.08;;
76540;SDS011;65385;55.772;37.658;2024-03-08T02:49:03;6.18;;;3.80;;
76540;SDS011;65385;55.772;37.658;2024-03-08T02:50:04;8.55;;;4.47;;
76540;SDS011;65385;55.772;37.658;2024-03-08T02:51:05;8.00;;;3.95;;
76540;SDS011;65385;55.772;37.658;2024-03-08T02:52:06;7.00;;;3.88;;
76540;SDS011;65385;55.772;37.658;2024-03-08T02:53:08;7.78;;;3.50;;
76540;SDS011;65385;55.772;37.658;2024-03-08T02:54:08;9.90;;;4.47;;
76540;SDS011;65385;55.772;37.658;2024-03-08T02:55:10;9.93;;;4.18;;
76540;SDS011;65385;55.772;37.658;2024-03-08T02:56:11;11.18;;;5.53;;
76540;SDS011;65385;55.772;37.658;2024-03-08T02:57:13;7.32;;;3.75;;
76540;SDS011;65385;55.772;37.658;2024-03-08T02:58:15;6.78;;;3.50;;
76540;SDS011;65385;55.772;37.658;2024-03-08T02:59:15;7.70;;;3.53;;
76540;SDS011;65385;55.772;37.658;2024-03-08T03:00:17;8.73;;;3.65;;
76540;SDS011;65385;55.772;37.658;2024-03-08T03:01:19;5.45;;;3.25;;
76540;SDS011;65385;55.772;37.658;2024-03-08T03:02:20;9.05;;;4.65;;
76540;SDS011;65385;55.772;37.658;2024-03-08T03:03:21;11.82;;;4.70;;
76540;SDS011;65385;55.772;37.658;2024-03-08T03:04:22;9.20;;;4.13;;
76540;SDS011;65385;55.772;37.658;2024-03-08T03:05:23;9.73;;;5.55;;
76540;SDS011;65385;55.772;37.658;2024-03-08T03:06:24;9.00;;;4.95;;
76540;SDS011;65385;55.772;37.658;2024-03-08T03:07:26;8.48;;;4.82;;
76540;SDS011;65385;55.772;37.658;2024-03-08T03:08:27;12.80;;;5.88;;
76540;SDS011;65385;55.772;37.658;2024-03-08T03:09:28;12.80;;;6.03;;
76540;SDS011;65385;55.772;37.658;2024-03-08T03:10:29;7.18;;;4.45;;
76540;SDS011;65385;55.772;37.658;2024-03-08T03:11:29;12.27;;;4.85;;
76540;SDS011;65385;55.772;37.658;2024-03-08T03:12:30;6.97;;;4.00;;
76540;SDS011;65385;55.772;37.658;2024-03-08T03:13:32;7.57;;;4.63;;
76540;SDS011;65385;55.772;37.658;2024-03-08T03:14:34;9.82;;;4.35;;
76540;SDS011;65385;55.772;37.658;2024-03-08T03:15:38;11.20;;;5.63;;
76540;SDS011;65385;55.772;37.658;2024-03-08T03:16:41;9.93;;;5.72;;
76540;SDS011;65385;55.772;37.658;2024-03-08T03:17:47;10.40;;;5.72;;
76540;SDS011;65385;55.772;37.658;2024-03-08T03:18:51;9.60;;;4.22;;
76540;SDS011;65385;55.772;37.658;2024-03-08T03:19:52;9.98;;;6.10;;
76540;SDS011;65385;55.772;37.658;2024-03-08T03:20:53;9.80;;;5.47;;
76540;SDS011;65385;55.772;37.658;2024-03-08T03:21:53;11.35;;;5.40;;
76540;SDS011;65385;55.772;37.658;2024-03-08T03:22:54;8.85;;;5.18;;
76540;SDS011;65385;55.772;37.658;2024-03-08T03:23:56;9.80;;;4.90;;
76540;SDS011;65385;55.772;37.658;2024-03-08T03:24:59;13.48;;;5.68;;
76540;SDS011;65385;55.772;37.658;2024-03-08T03:26:01;14.43;;;6.10;;
76540;SDS011;65385;55.772;37.658;2024-03-08T03:27:02;9.23;;;4.78;;
76540;SDS011;65385;55.772;37.658;2024-03-08T03:28:11;8.98;;;5.63;;
76540;SDS011;65385;55.772;37.658;2024-03-08T03:29:15;11.30;;;5.50;;
76540;SDS011;65385;55.772;37.658;2024-03-08T03:30:17;12.73;;;6.05;;
76540;SDS011;65385;55.772;37.658;2024-03-08T03:31:26;12.43;;;6.47;;
76540;SDS011;65385;55.772;37.658;2024-03-08T03:32:26;15.02;;;5.75;;
76540;SDS011;65385;55.772;37.658;2024-03-08T03:33:28;10.88;;;5.18;;
76540;SDS011;65385;55.772;37.658;2024-03-08T03:34:29;13.68;;;6.43;;
76540;SDS011;65385;55.772;37.658;2024-03-08T03:35:30;15.10;;;6.13;;
76540;SDS011;65385;55.772;37.658;2024-03-08T03:36:30;10.80;;;5.60;;
76540;SDS011;65385;55.772;37.658;2024-03-08T03:37:31;7.22;;;4.13;;
76540;SDS011;65385;55.772;37.658;2024-03-08T03:38:32;6.03;;;3.63;;
76540;SDS011;65385;55.772;37.658;2024-03-08T03:39:33;10.02;;;5.10;;
76540;SDS011;65385;55.772;37.658;2024-03-08T03:40:34;12.98;;;6.43;;
76540;SDS011;65385;55.772;37.658;2024-03-08T03:41:38;7.95;;;4.10;;
76540;SDS011;65385;55.772;37.658;2024-03-08T03:42:39;5.53;;;4.97;;
76540;SDS011;65385;55.772;37.658;2024-03-08T03:43:40;12.05;;;5.20;;
76540;SDS011;65385;55.772;37.658;2024-03-08T03:44:40;13.10;;;5.40;;
76540;SDS011;65385;55.772;37.658;2024-03-08T03:45:41;8.57;;;4.65;;
76540;SDS011;65385;55.772;37.658;2024-03-08T03:46:42;11.00;;;4.95;;
76540;SDS011;65385;55.772;37.658;2024-03-08T03:47:46;9.52;;;5.40;;
76540;SDS011;65385;55.772;37.658;2024-03-08T03:48:46;6.47;;;4.05;;
76540;SDS011;65385;55.772;37.658;2024-03-08T03:49:47;8.20;;;5.00;;
76540;SDS011;65385;55.772;37.658;2024-03-08T03:50:47;6.97;;;3.40;;
76540;SDS011;65385;55.772;37.658;2024-03-08T03:51:50;7.32;;;3.95;;
76540;SDS011;65385;55.772;37.658;2024-03-08T03:52:51;10.43;;;5.28;;
76540;SDS011;65385;55.772;37.658;2024-03-08T03:53:51;12.07;;;5.43;;
76540;SDS011;65385;55.772;37.658;2024-03-08T03:54:53;11.82;;;5.43;;
76540;SDS011;65385;55.772;37.658;2024-03-08T03:55:53;13.07;;;6.25;;
76540;SDS011;65385;55.772;37.658;2024-03-08T03:56:54;8.70;;;4.10;;
76540;SDS011;65385;55.772;37.658;2024-03-08T03:57:55;10.50;;;5.65;;
76540;SDS011;65385;55.772;37.658;2024-03-08T03:58:56;5.45;;;3.80;;
76540;SDS011;65385;55.772;37.658;2024-03-08T03:59:57;9.38;;;5.10;;
76540;SDS011;65385;55.772;37.658;2024-03-08T04:01:13;9.23;;;4.40;;
76540;SDS011;65385;55.772;37.658;2024-03-08T04:02:14;7.53;;;4.38;;
76540;SDS011;65385;55.772;37.658;2024-03-08T04:03:15;14.15;;;6.22;;
76540;SDS011;65385;55.772;37.658;2024-03-08T04:04:17;9.48;;;5.13;;
76540;SDS011;65385;55.772;37.658;2024-03-08T04:05:18;8.68;;;5.03;;
76540;SDS011;65385;55.772;37.658;2024-03-08T04:06:18;11.80;;;5.45;;
76540;SDS011;65385;55.772;37.658;2024-03-08T04:07:19;13.45;;;5.35;;
76540;SDS011;65385;55.772;37.658;2024-03-08T04:08:19;10.35;;;5.90;;
76540;SDS011;65385;55.772;37.658;2024-03-08T04:09:20;11.70;;;5.28;;
76540;SDS011;65385;55.772;37.658;2024-03-08T04:10:22;5.95;;;3.20;;
76540;SDS011;65385;55.772;37.658;2024-03-08T04:11:23;7.85;;;4.13;;
76540;SDS011;65385;55.772;37.658;2024-03-08T04:12:23;10.65;;;5.15;;
76540;SDS011;65385;55.772;37.658;2024-03-08T04:13:24;5.65;;;3.25;;
76540;SDS011;65385;55.772;37.658;2024-03-08T04:14:25;7.90;;;4.75;;
76540;SDS011;65385;55.772;37.658;2024-03-08T04:15:25;10.63;;;6.03;;
76540;SDS011;65385;55.772;37.658;2024-03-08T04:16:26;12.18;;;6.43;;
76540;SDS011;65385;55.772;37.658;2024-03-08T04:17:27;10.25;;;5.32;;
76540;SDS011;65385;55.772;37.658;2024-03-08T04:18:27;10.10;;;4.93;;
76540;SDS011;65385;55.772;37.658;2024-03-08T04:19:28;9.05;;;4.93;;
76540;SDS011;65385;55.772;37.658;2024-03-08T04:20:29;9.82;;;5.20;;
76540;SDS011;65385;55.772;37.658;2024-03-08T04:21:30;11.95;;;5.50;;
76540;SDS011;65385;55.772;37.658;2024-03-08T04:22:31;10.95;;;5.53;;
76540;SDS011;65385;55.772;37.658;2024-03-08T04:23:33;12.15;;;6.53;;
76540;SDS011;65385;55.772;37.658;2024-03-08T04:24:37;4.93;;;3.53;;
76540;SDS011;65385;55.772;37.658;2024-03-08T04:25:37;8.13;;;4.55;;
76540;SDS011;65385;55.772;37.658;2024-03-08T04:26:38;11.05;;;6.05;;
76540;SDS011;65385;55.772;37.658;2024-03-08T04:27:39;9.07;;;4.72;;
76540;SDS011;65385;55.772;37.658;2024-03-08T04:28:40;5.03;;;3.95;;
76540;SDS011;65385;55.772;37.658;2024-03-08T04:29:41;12.90;;;5.55;;
76540;SDS011;65385;55.772;37.658;2024-03-08T04:30:42;10.23;;;5.78;;
76540;SDS011;65385;55.772;37.658;2024-03-08T04:31:43;11.30;;;5.90;;
76540;SDS011;65385;55.772;37.658;2024-03-08T04:32:44;12.27;;;6.55;;
76540;SDS011;65385;55.772;37.658;2024-03-08T04:33:45;12.77;;;6.45;;
76540;SDS011;65385;55.772;37.658;2024-03-08T04:34:46;11.90;;;6.75;;
76540;SDS011;65385;55.772;37.658;2024-03-08T04:35:46;7.70;;;3.95;;
76540;SDS011;65385;55.772;37.658;2024-03-08T04:36:48;11.20;;;4.55;;
76540;SDS011;65385;55.772;37.658;2024-03-08T04:37:49;7.00;;;4.20;;
76540;SDS011;65385;55.772;37.658;2024-03-08T04:38:49;11.05;;;5.22;;
76540;SDS011;65385;55.772;37.658;2024-03-08T04:39:50;3.42;;;2.25;;
76540;SDS011;65385;55.772;37.658;2024-03-08T04:40:51;14.02;;;6.70;;
76540;SDS011;65385;55.772;37.658;2024-03-08T04:41:51;12.85;;;5.32;;
76540;SDS011;65385;55.772;37.658;2024-03-08T04:42:52;8.85;;;4.40;;
76540;SDS011;65385;55.772;37.658;2024-03-08T04:43:53;12.98;;;6.30;;
76540;SDS011;65385;55.772;37.658;2024-03-08T04:44:53;6.82;;;3.90;;
76540;SDS011;65385;55.772;37.658;2024-03-08T04:45:54;9.10;;;5.45;;
76540;SDS011;65385;55.772;37.658;2024-03-08T04:46:55;11.90;;;6.65;;
76540;SDS011;65385;55.772;37.658;2024-03-08T04:47:55;11.57;;;6.03;;
76540;SDS011;65385;55.772;37.658;2024-03-08T04:48:56;16.10;;;6.18;;
76540;SDS011;65385;55.772;37.658;2024-03-08T04:49:59;13.75;;;6.50;;
76540;SDS011;65385;55.772;37.658;2024-03-08T04:51:00;14.30;;;7.20;;
76540;SDS011;65385;55.772;37.658;2024-03-08T04:52:04;10.80;;;5.65;;
76540;SDS011;65385;55.772;37.658;2024-03-08T04:53:05;12.30;;;6.20;;
76540;SDS011;65385;55.772;37.658;2024-03-08T04:54:08;13.18;;;7.50;;
76540;SDS011;65385;55.772;37.658;2024-03-08T04:55:08;14.43;;;7.07;;
76540;SDS011;65385;55.772;37.658;2024-03-08T04:56:09;9.55;;;4.78;;
76540;SDS011;65385;55.772;37.658;2024-03-08T04:57:10;14.45;;;6.88;;
76540;SDS011;65385;55.772;37.658;2024-03-08T04:58:11;14.15;;;6.28;;
76540;SDS011;65385;55.772;37.658;2024-03-08T04:59:11;9.70;;;4.75;;
76540;SDS011;65385;55.772;37.658;2024-03-08T05:00:12;15.45;;;6.03;;
76540;SDS011;65385;55.772;37.658;2024-03-08T05:01:14;7.53;;;4.13;;
76540;SDS011;65385;55.772;37.658;2024-03-08T05:02:14;10.77;;;6.22;;
76540;SDS011;65385;55.772;37.658;2024-03-08T05:03:15;8.52;;;4.60;;
76540;SDS011;65385;55.772;37.658;2024-03-08T05:04:16;9.68;;;5.15;;
76540;SDS011;65385;55.772;37.658;2024-03-08T05:05:16;11.45;;;4.97;;
76540;SDS011;65385;55.772;37.658;2024-03-08T05:06:17;13.10;;;6.60;;
76540;SDS011;65385;55.772;37.658;2024-03-08T05:07:17;13.80;;;6.45;;
76540;SDS011;65385;55.772;37.658;2024-03-08T05:08:19;14.13;;;6.43;;
76540;SDS011;65385;55.772;37.658;2024-03-08T05:09:20;16.85;;;6.43;;
76540;SDS011;65385;55.772;37.658;2024-03-08T05:10:21;14.55;;;5.53;;
76540;SDS011;65385;55.772;37.658;2024-03-08T05:11:22;15.90;;;8.27;;
76540;SDS011;65385;55.772;37.658;2024-03-08T05:12:22;13.95;;;7.75;;
76540;SDS011;65385;55.772;37.658;2024-03-08T05:13:23;14.32;;;7.13;;
76540;SDS011;65385;55.772;37.658;2024-03-08T05:14:23;17.13;;;7.38;;
76540;SDS011;65385;55.772;37.658;2024-03-08T05:15:25;15.95;;;7.05;;
76540;SDS011;65385;55.772;37.658;2024-03-08T05:16:25;16.05;;;7.68;;
76540;SDS011;65385;55.772;37.658;2024-03-08T05:17:26;13.18;;;6.75;;
76540;SDS011;65385;55.772;37.658;2024-03-08T05:18:27;14.98;;;7.32;;
76540;SDS011;65385;55.772;37.658;2024-03-08T05:19:32;12.45;;;6.28;;
76540;SDS011;65385;55.772;37.658;2024-03-08T05:20:32;12.30;;;6.20;;
76540;SDS011;65385;55.772;37.658;2024-03-08T05:21:33;9.40;;;5.18;;
76540;SDS011;65385;55.772;37.658;2024-03-08T05:22:34;13.00;;;6.53;;
76540;SDS011;65385;55.772;37.658;2024-03-08T05:23:34;13.52;;;5.47;;
76540;SDS011;65385;55.772;37.658;2024-03-08T05:24:35;13.73;;;7.05;;
76540;SDS011;65385;55.772;37.658;2024-03-08T05:25:35;12.43;;;6.57;;
76540;SDS011;65385;55.772;37.658;2024-03-08T05:26:36;15.85;;;6.88;;
76540;SDS011;65385;55.772;37.658;2024-03-08T05:27:40;13.10;;;5.90;;
76540;SDS011;65385;55.772;37.658;2024-03-08T05:28:40;12.27;;;5.35;;
76540;SDS011;65385;55.772;37.658;2024-03-08T05:29:41;13.55;;;5.93;;
76540;SDS011;65385;55.772;37.658;2024-03-08T05:30:42;19.77;;;7.53;;
76540;SDS011;65385;55.772;37.658;2024-03-08T05:31:45;14.32;;;6.50;;
76540;SDS011;65385;55.772;37.658;2024-03-08T05:32:50;13.80;;;6.82;;
76540;SDS011;65385;55.772;37.658;2024-03-08T05:33:50;15.55;;;7.25;;
76540;SDS011;65385;55.772;37.658;2024-03-08T05:34:51;13.90;;;6.13;;
76540;SDS011;65385;55.772;37.658;2024-03-08T05:35:52;12.55;;;5.95;;
76540;SDS011;65385;55.772;37.658;2024-03-08T05:36:52;9.02;;;4.30;;
76540;SDS011;65385;55.772;37.658;2024-03-08T05:37:54;13.75;;;7.05;;
76540;SDS011;65385;55.772;37.658;2024-03-08T05:38:55;14.73;;;6.50;;
76540;SDS011;65385;55.772;37.658;2024-03-08T05:39:56;17.42;;;6.65;;
76540;SDS011;65385;55.772;37.658;2024-03-08T05:40:56;14.10;;;6.38;;
76540;SDS011;65385;55.772;37.658;2024-03-08T05:41:57;8.82;;;4.75;;
76540;SDS011;65385;55.772;37.658;2024-03-08T05:42:58;12.82;;;6.75;;
76540;SDS011;65385;55.772;37.658;2024-03-08T05:44:00;13.98;;;6.55;;
76540;SDS011;65385;55.772;37.658;2024-03-08T05:45:00;16.70;;;6.90;;
76540;SDS011;65385;55.772;37.658;2024-03-08T05:46:01;9.43;;;4.72;;
76540;SDS011;65385;55.772;37.658;2024-03-08T05:47:04;7.78;;;3.58;;
76540;SDS011;65385;55.772;37.658;2024-03-08T05:48:07;11.77;;;5.38;;
76540;SDS011;65385;55.772;37.658;2024-03-08T05:49:08;11.63;;;6.63;;
76540;SDS011;65385;55.772;37.658;2024-03-08T05:50:10;11.38;;;4.32;;
76540;SDS011;65385;55.772;37.658;2024-03-08T05:51:11;10.43;;;3.95;;
76540;SDS011;65385;55.772;37.658;2024-03-08T05:52:12;13.82;;;6.53;;
76540;SDS011;65385;55.772;37.658;2024-03-08T05:53:13;12.32;;;5.20;;
76540;SDS011;65385;55.772;37.658;2024-03-08T05:54:13;10.38;;;5.57;;
76540;SDS011;65385;55.772;37.658;2024-03-08T05:55:14;7.80;;;3.97;;
76540;SDS011;65385;55.772;37.658;2024-03-08T05:56:15;10.25;;;3.92;;
76540;SDS011;65385;55.772;37.658;2024-03-08T05:57:15;15.27;;;6.32;;
76540;SDS011;65385;55.772;37.658;2024-03-08T05:58:17;10.60;;;5.53;;
76540;SDS011;65385;55.772;37.658;2024-03-08T05:59:18;9.32;;;4.78;;
76540;SDS011;65385;55.772;37.658;2024-03-08T06:00:19;12.38;;;6.00;;
76540;SDS011;65385;55.772;37.658;2024-03-08T06:01:20;10.77;;;5.47;;
76540;SDS011;65385;55.772;37.658;2024-03-08T06:02:20;13.27;;;5.93;;